sensor_id;sensor_type;location;lat;lon;timestamp;P1;durP1;ratioP1;P2;durP2;ratioP2
30020;SDS011;16861;52.294;7.760;2022-10-16T00:01:57;2.50;;;2.30;;
30020;SDS011;16861;52.294;7.760;2022-10-16T00:04:24;3.95;;;2.63;;
30020;SDS011;16861;52.294;7.760;2022-10-16T00:06:51;6.07;;;2.80;;
30020;SDS011;16861;52.294;7.760;2022-10-16T00:09:17;4.80;;;2.97;;
30020;SDS011;16861;52.294;7.760;2022-10-16T00:11:44;3.90;;;2.75;;
30020;SDS011;16861;52.294;7.760;2022-10-16T00:14:12;5.18;;;3.20;;
30020;SDS011;16861;52.294;7.760;2022-10-16T00:16:40;6.30;;;3.63;;
30020;SDS011;16861;52.294;7.760;2022-10-16T00:19:07;5.53;;;3.05;;
30020;SDS011;16861;52.294;7.760;2022-10-16T00:21:33;5.45;;;3.55;;
30020;SDS011;16861;52.294;7.760;2022-10-16T00:24:04;7.85;;;3.40;;
30020;SDS011;16861;52.294;7.760;2022-10-16T00:26:34;6.28;;;3.28;;
30020;SDS011;16861;52.294;7.760;2022-10-16T00:29:02;5.57;;;3.55;;
30020;SDS011;16861;52.294;7.760;2022-10-16T00:31:30;8.38;;;3.50;;
30020;SDS011;16861;52.294;7.760;2022-10-16T00:33:57;4.75;;;3.53;;
30020;SDS011;16861;52.294;7.760;2022-10-16T00:36:24;5.68;;;3.63;;
30020;SDS011;16861;52.294;7.760;2022-10-16T00:38:56;4.90;;;3.80;;
30020;SDS011;16861;52.294;7.760;2022-10-16T00:41:30;6.65;;;3.58;;
30020;SDS011;16861;52.294;7.760;2022-10-16T00:44:02;4.45;;;3.53;;
30020;SDS011;16861;52.294;7.760;2022-10-16T00:46:35;9.15;;;4.18;;
30020;SDS011;16861;52.294;7.760;2022-10-16T00:49:05;6.28;;;4.20;;
30020;SDS011;16861;52.294;7.760;2022-10-16T00:54:17;5.63;;;4.15;;
30020;SDS011;16861;52.294;7.760;2022-10-16T00:56:48;5.38;;;4.13;;
30020;SDS011;16861;52.294;7.760;2022-10-16T00:59:20;8.50;;;5.00;;
30020;SDS011;16861;52.294;7.760;2022-10-16T01:01:51;6.07;;;4.88;;
30020;SDS011;16861;52.294;7.760;2022-10-16T01:04:19;7.28;;;4.80;;
30020;SDS011;16861;52.294;7.760;2022-10-16T01:06:47;6.22;;;4.63;;
30020;SDS011;16861;52.294;7.760;2022-10-16T01:09:25;8.13;;;4.68;;
30020;SDS011;16861;52.294;7.760;2022-10-16T01:12:01;9.48;;;5.30;;
30020;SDS011;16861;52.294;7.760;2022-10-16T01:17:34;6.82;;;5.07;;
30020;SDS011;16861;52.294;7.760;2022-10-16T01:20:26;10.82;;;5.38;;
30020;SDS011;16861;52.294;7.760;2022-10-16T01:31:35;9.43;;;5.80;;
30020;SDS011;16861;52.294;7.760;2022-10-16T01:34:06;11.68;;;5.75;;
30020;SDS011;16861;52.294;7.760;2022-10-16T01:36:50;7.35;;;5.53;;
30020;SDS011;16861;52.294;7.760;2022-10-16T01:39:23;9.88;;;5.57;;
30020;SDS011;16861;52.294;7.760;2022-10-16T01:41:56;12.03;;;6.07;;
30020;SDS011;16861;52.294;7.760;2022-10-16T01:44:29;8.60;;;5.88;;
30020;SDS011;16861;52.294;7.760;2022-10-16T01:46:58;10.55;;;6.35;;
30020;SDS011;16861;52.294;7.760;2022-10-16T01:49:27;7.20;;;5.95;;
30020;SDS011;16861;52.294;7.760;2022-10-16T01:51:58;8.25;;;5.82;;
30020;SDS011;16861;52.294;7.760;2022-10-16T01:54:28;9.75;;;6.43;;
30020;SDS011;16861;52.294;7.760;2022-10-16T01:56:58;14.35;;;6.63;;
30020;SDS011;16861;52.294;7.760;2022-10-16T01:59:26;8.40;;;6.32;;
30020;SDS011;16861;52.294;7.760;2022-10-16T02:01:58;7.22;;;6.35;;
30020;SDS011;16861;52.294;7.760;2022-10-16T02:04:31;8.30;;;6.22;;
30020;SDS011;16861;52.294;7.760;2022-10-16T02:07:01;11.38;;;6.30;;
30020;SDS011;16861;52.294;7.760;2022-10-16T02:09:27;13.88;;;6.75;;
30020;SDS011;16861;52.294;7.760;2022-10-16T02:11:56;8.18;;;6.35;;
30020;SDS011;16861;52.294;7.760;2022-10-16T02:14:28;8.93;;;6.93;;
30020;SDS011;16861;52.294;7.760;2022-10-16T02:16:55;11.18;;;7.03;;
30020;SDS011;16861;52.294;7.760;2022-10-16T02:19:22;7.72;;;6.18;;
30020;SDS011;16861;52.294;7.760;2022-10-16T02:21:49;12.90;;;7.45;;
30020;SDS011;16861;52.294;7.760;2022-10-16T02:24:24;8.60;;;6.82;;
30020;SDS011;16861;52.294;7.760;2022-10-16T02:26:56;7.50;;;6.57;;
30020;SDS011;16861;52.294;7.760;2022-10-16T02:29:29;8.13;;;6.45;;
30020;SDS011;16861;52.294;7.760;2022-10-16T02:31:58;12.85;;;6.63;;
30020;SDS011;16861;52.294;7.760;2022-10-16T02:34:30;8.68;;;6.25;;
30020;SDS011;16861;52.294;7.760;2022-10-16T02:36:59;11.15;;;6.57;;
30020;SDS011;16861;52.294;7.760;2022-10-16T02:39:29;9.50;;;6.70;;
30020;SDS011;16861;52.294;7.760;2022-10-16T02:41:57;12.23;;;6.57;;
30020;SDS011;16861;52.294;7.760;2022-10-16T02:44:23;8.18;;;5.95;;
30020;SDS011;16861;52.294;7.760;2022-10-16T02:46:50;8.45;;;6.18;;
30020;SDS011;16861;52.294;7.760;2022-10-16T02:49:17;9.10;;;6.38;;
30020;SDS011;16861;52.294;7.760;2022-10-16T02:51:44;9.90;;;5.88;;
30020;SDS011;16861;52.294;7.760;2022-10-16T02:54:10;7.80;;;5.95;;
30020;SDS011;16861;52.294;7.760;2022-10-16T02:56:37;9.48;;;6.97;;
30020;SDS011;16861;52.294;7.760;2022-10-16T02:59:03;9.82;;;6.15;;
30020;SDS011;16861;52.294;7.760;2022-10-16T03:01:30;10.35;;;6.95;;
30020;SDS011;16861;52.294;7.760;2022-10-16T03:03:57;8.32;;;6.53;;
30020;SDS011;16861;52.294;7.760;2022-10-16T03:06:23;11.88;;;6.53;;
30020;SDS011;16861;52.294;7.760;2022-10-16T03:08:50;10.63;;;5.88;;
30020;SDS011;16861;52.294;7.760;2022-10-16T03:11:17;8.93;;;6.20;;
30020;SDS011;16861;52.294;7.760;2022-10-16T03:13:43;10.25;;;6.35;;
30020;SDS011;16861;52.294;7.760;2022-10-16T03:16:10;8.30;;;5.88;;
30020;SDS011;16861;52.294;7.760;2022-10-16T03:18:37;9.35;;;5.40;;
30020;SDS011;16861;52.294;7.760;2022-10-16T03:21:03;12.00;;;6.28;;
30020;SDS011;16861;52.294;7.760;2022-10-16T03:23:31;8.75;;;5.53;;
30020;SDS011;16861;52.294;7.760;2022-10-16T03:25:57;8.57;;;5.60;;
30020;SDS011;16861;52.294;7.760;2022-10-16T03:28:25;7.85;;;4.97;;
30020;SDS011;16861;52.294;7.760;2022-10-16T03:30:51;7.45;;;4.72;;
30020;SDS011;16861;52.294;7.760;2022-10-16T03:33:18;7.78;;;5.85;;
30020;SDS011;16861;52.294;7.760;2022-10-16T03:35:50;6.57;;;5.15;;
30020;SDS011;16861;52.294;7.760;2022-10-16T03:38:21;6.97;;;5.03;;
30020;SDS011;16861;52.294;7.760;2022-10-16T03:40:47;9.35;;;5.25;;
30020;SDS011;16861;52.294;7.760;2022-10-16T03:43:14;7.93;;;4.53;;
30020;SDS011;16861;52.294;7.760;2022-10-16T03:45:41;8.45;;;5.35;;
30020;SDS011;16861;52.294;7.760;2022-10-16T03:48:08;8.93;;;5.32;;
30020;SDS011;16861;52.294;7.760;2022-10-16T03:50:34;10.65;;;5.40;;
30020;SDS011;16861;52.294;7.760;2022-10-16T03:53:01;7.72;;;4.68;;
30020;SDS011;16861;52.294;7.760;2022-10-16T03:55:27;8.52;;;4.90;;
30020;SDS011;16861;52.294;7.760;2022-10-16T03:57:54;7.60;;;4.70;;
30020;SDS011;16861;52.294;7.760;2022-10-16T04:00:20;6.57;;;4.32;;
30020;SDS011;16861;52.294;7.760;2022-10-16T04:02:47;6.45;;;5.05;;
30020;SDS011;16861;52.294;7.760;2022-10-16T04:05:14;7.25;;;4.63;;
30020;SDS011;16861;52.294;7.760;2022-10-16T04:07:40;6.00;;;4.47;;
30020;SDS011;16861;52.294;7.760;2022-10-16T04:10:07;6.85;;;4.72;;
30020;SDS011;16861;52.294;7.760;2022-10-16T04:12:34;6.13;;;4.35;;
30020;SDS011;16861;52.294;7.760;2022-10-16T04:15:00;7.05;;;4.78;;
30020;SDS011;16861;52.294;7.760;2022-10-16T04:17:27;5.47;;;4.20;;
30020;SDS011;16861;52.294;7.760;2022-10-16T04:19:54;9.93;;;4.90;;
30020;SDS011;16861;52.294;7.760;2022-10-16T04:22:21;7.57;;;4.50;;
30020;SDS011;16861;52.294;7.760;2022-10-16T04:24:47;5.93;;;4.63;;
30020;SDS011;16861;52.294;7.760;2022-10-16T04:27:14;11.15;;;4.93;;
30020;SDS011;16861;52.294;7.760;2022-10-16T04:29:40;5.63;;;4.10;;
30020;SDS011;16861;52.294;7.760;2022-10-16T04:32:08;4.97;;;4.10;;
30020;SDS011;16861;52.294;7.760;2022-10-16T04:34:35;9.07;;;4.28;;
30020;SDS011;16861;52.294;7.760;2022-10-16T04:37:02;6.88;;;4.40;;
30020;SDS011;16861;52.294;7.760;2022-10-16T04:39:28;6.63;;;4.18;;
30020;SDS011;16861;52.294;7.760;2022-10-16T04:41:55;5.55;;;4.47;;
30020;SDS011;16861;52.294;7.760;2022-10-16T04:44:21;6.72;;;4.43;;
30020;SDS011;16861;52.294;7.760;2022-10-16T04:46:50;6.75;;;4.15;;
30020;SDS011;16861;52.294;7.760;2022-10-16T04:49:17;8.77;;;4.47;;
30020;SDS011;16861;52.294;7.760;2022-10-16T04:51:43;5.93;;;4.20;;
30020;SDS011;16861;52.294;7.760;2022-10-16T04:54:10;7.13;;;4.00;;
30020;SDS011;16861;52.294;7.760;2022-10-16T04:56:36;7.80;;;4.05;;
30020;SDS011;16861;52.294;7.760;2022-10-16T04:59:09;7.05;;;3.88;;
30020;SDS011;16861;52.294;7.760;2022-10-16T05:01:36;5.72;;;3.78;;
30020;SDS011;16861;52.294;7.760;2022-10-16T05:04:02;7.63;;;3.33;;
30020;SDS011;16861;52.294;7.760;2022-10-16T05:06:29;4.50;;;3.35;;
30020;SDS011;16861;52.294;7.760;2022-10-16T05:08:55;5.25;;;3.63;;
30020;SDS011;16861;52.294;7.760;2022-10-16T05:11:22;6.25;;;3.58;;
30020;SDS011;16861;52.294;7.760;2022-10-16T05:13:49;4.70;;;3.65;;
30020;SDS011;16861;52.294;7.760;2022-10-16T05:16:20;10.05;;;4.10;;
30020;SDS011;16861;52.294;7.760;2022-10-16T05:18:47;4.50;;;3.60;;
30020;SDS011;16861;52.294;7.760;2022-10-16T05:21:18;5.18;;;3.30;;
30020;SDS011;16861;52.294;7.760;2022-10-16T05:23:45;4.55;;;3.38;;
30020;SDS011;16861;52.294;7.760;2022-10-16T05:26:11;4.68;;;3.13;;
30020;SDS011;16861;52.294;7.760;2022-10-16T05:28:38;4.25;;;3.00;;
30020;SDS011;16861;52.294;7.760;2022-10-16T05:31:05;5.85;;;3.25;;
30020;SDS011;16861;52.294;7.760;2022-10-16T05:33:33;6.45;;;3.25;;
30020;SDS011;16861;52.294;7.760;2022-10-16T05:36:01;5.20;;;3.15;;
30020;SDS011;16861;52.294;7.760;2022-10-16T05:38:29;4.05;;;3.25;;
30020;SDS011;16861;52.294;7.760;2022-10-16T05:40:55;8.05;;;3.47;;
30020;SDS011;16861;52.294;7.760;2022-10-16T05:43:22;4.50;;;2.72;;
30020;SDS011;16861;52.294;7.760;2022-10-16T05:45:56;4.00;;;3.50;;
30020;SDS011;16861;52.294;7.760;2022-10-16T05:48:24;7.30;;;3.50;;
30020;SDS011;16861;52.294;7.760;2022-10-16T05:51:12;5.28;;;3.55;;
30020;SDS011;16861;52.294;7.760;2022-10-16T05:53:39;5.10;;;3.03;;
30020;SDS011;16861;52.294;7.760;2022-10-16T05:56:07;3.92;;;3.53;;
30020;SDS011;16861;52.294;7.760;2022-10-16T05:58:37;3.45;;;3.03;;
30020;SDS011;16861;52.294;7.760;2022-10-16T06:01:10;4.93;;;3.10;;
30020;SDS011;16861;52.294;7.760;2022-10-16T06:03:39;4.28;;;2.83;;
30020;SDS011;16861;52.294;7.760;2022-10-16T06:06:07;3.80;;;2.60;;
30020;SDS011;16861;52.294;7.760;2022-10-16T06:08:38;5.18;;;3.20;;
30020;SDS011;16861;52.294;7.760;2022-10-16T06:11:06;2.90;;;2.63;;
30020;SDS011;16861;52.294;7.760;2022-10-16T06:13:34;4.13;;;3.10;;
30020;SDS011;16861;52.294;7.760;2022-10-16T06:16:01;4.07;;;2.60;;
30020;SDS011;16861;52.294;7.760;2022-10-16T06:18:29;3.58;;;3.00;;
30020;SDS011;16861;52.294;7.760;2022-10-16T06:20:56;3.80;;;3.00;;
30020;SDS011;16861;52.294;7.760;2022-10-16T06:23:24;6.43;;;3.35;;
30020;SDS011;16861;52.294;7.760;2022-10-16T06:25:51;3.50;;;2.97;;
30020;SDS011;16861;52.294;7.760;2022-10-16T06:28:17;3.97;;;2.90;;
30020;SDS011;16861;52.294;7.760;2022-10-16T06:30:44;4.25;;;2.67;;
30020;SDS011;16861;52.294;7.760;2022-10-16T06:33:11;4.20;;;2.70;;
30020;SDS011;16861;52.294;7.760;2022-10-16T06:35:38;4.03;;;2.70;;
30020;SDS011;16861;52.294;7.760;2022-10-16T06:38:05;7.28;;;3.00;;
30020;SDS011;16861;52.294;7.760;2022-10-16T06:40:31;5.95;;;2.95;;
30020;SDS011;16861;52.294;7.760;2022-10-16T06:42:58;4.10;;;2.45;;
30020;SDS011;16861;52.294;7.760;2022-10-16T06:45:24;3.28;;;2.28;;
30020;SDS011;16861;52.294;7.760;2022-10-16T06:47:51;4.57;;;2.33;;
30020;SDS011;16861;52.294;7.760;2022-10-16T06:50:18;5.05;;;2.42;;
30020;SDS011;16861;52.294;7.760;2022-10-16T06:52:44;3.33;;;2.30;;
30020;SDS011;16861;52.294;7.760;2022-10-16T06:55:11;4.07;;;2.15;;
30020;SDS011;16861;52.294;7.760;2022-10-16T06:57:37;2.78;;;2.13;;
30020;SDS011;16861;52.294;7.760;2022-10-16T07:00:04;4.22;;;2.30;;
30020;SDS011;16861;52.294;7.760;2022-10-16T07:02:31;4.15;;;2.35;;
30020;SDS011;16861;52.294;7.760;2022-10-16T07:04:58;5.13;;;2.17;;
30020;SDS011;16861;52.294;7.760;2022-10-16T07:07:24;4.30;;;2.35;;
30020;SDS011;16861;52.294;7.760;2022-10-16T07:09:52;3.83;;;2.30;;
30020;SDS011;16861;52.294;7.760;2022-10-16T07:12:19;4.18;;;2.60;;
30020;SDS011;16861;52.294;7.760;2022-10-16T07:14:45;4.60;;;2.03;;
30020;SDS011;16861;52.294;7.760;2022-10-16T07:17:12;2.65;;;1.88;;
30020;SDS011;16861;52.294;7.760;2022-10-16T07:19:39;4.07;;;2.53;;
30020;SDS011;16861;52.294;7.760;2022-10-16T07:22:05;8.00;;;2.67;;
30020;SDS011;16861;52.294;7.760;2022-10-16T07:24:32;3.22;;;2.22;;
30020;SDS011;16861;52.294;7.760;2022-10-16T07:26:59;2.80;;;2.10;;
30020;SDS011;16861;52.294;7.760;2022-10-16T07:29:26;2.88;;;2.50;;
30020;SDS011;16861;52.294;7.760;2022-10-16T07:31:52;3.22;;;2.13;;
30020;SDS011;16861;52.294;7.760;2022-10-16T07:34:21;3.83;;;2.05;;
30020;SDS011;16861;52.294;7.760;2022-10-16T07:36:48;4.95;;;1.95;;
30020;SDS011;16861;52.294;7.760;2022-10-16T07:39:16;2.40;;;1.98;;
30020;SDS011;16861;52.294;7.760;2022-10-16T07:41:43;2.75;;;2.15;;
30020;SDS011;16861;52.294;7.760;2022-10-16T07:44:10;4.40;;;2.30;;
30020;SDS011;16861;52.294;7.760;2022-10-16T07:46:36;5.22;;;2.38;;
30020;SDS011;16861;52.294;7.760;2022-10-16T07:49:03;2.38;;;2.10;;
30020;SDS011;16861;52.294;7.760;2022-10-16T07:51:30;3.50;;;2.60;;
30020;SDS011;16861;52.294;7.760;2022-10-16T07:53:57;4.97;;;2.00;;
30020;SDS011;16861;52.294;7.760;2022-10-16T07:56:23;2.45;;;1.92;;
30020;SDS011;16861;52.294;7.760;2022-10-16T07:58:50;2.50;;;2.20;;
30020;SDS011;16861;52.294;7.760;2022-10-16T08:01:17;4.88;;;2.25;;
30020;SDS011;16861;52.294;7.760;2022-10-16T08:03:46;4.38;;;2.60;;
30020;SDS011;16861;52.294;7.760;2022-10-16T08:06:17;2.72;;;2.05;;
30020;SDS011;16861;52.294;7.760;2022-10-16T08:08:52;4.13;;;2.50;;
30020;SDS011;16861;52.294;7.760;2022-10-16T08:11:18;4.65;;;2.20;;
30020;SDS011;16861;52.294;7.760;2022-10-16T08:13:45;3.70;;;2.17;;
30020;SDS011;16861;52.294;7.760;2022-10-16T08:16:11;5.93;;;2.47;;
30020;SDS011;16861;52.294;7.760;2022-10-16T08:18:38;3.45;;;2.17;;
30020;SDS011;16861;52.294;7.760;2022-10-16T08:21:07;3.33;;;1.98;;
30020;SDS011;16861;52.294;7.760;2022-10-16T08:23:46;4.57;;;2.10;;
30020;SDS011;16861;52.294;7.760;2022-10-16T08:26:16;2.33;;;1.98;;
30020;SDS011;16861;52.294;7.760;2022-10-16T08:28:43;5.50;;;2.40;;
30020;SDS011;16861;52.294;7.760;2022-10-16T08:31:13;5.00;;;2.20;;
30020;SDS011;16861;52.294;7.760;2022-10-16T08:33:42;5.50;;;2.50;;
30020;SDS011;16861;52.294;7.760;2022-10-16T08:36:12;4.07;;;2.30;;
30020;SDS011;16861;52.294;7.760;2022-10-16T08:38:40;2.63;;;1.98;;
30020;SDS011;16861;52.294;7.760;2022-10-16T08:48:46;2.70;;;2.05;;
30020;SDS011;16861;52.294;7.760;2022-10-16T08:51:19;4.32;;;1.65;;
30020;SDS011;16861;52.294;7.760;2022-10-16T08:53:57;2.85;;;1.63;;
30020;SDS011;16861;52.294;7.760;2022-10-16T08:56:25;4.70;;;1.95;;
30020;SDS011;16861;52.294;7.760;2022-10-16T08:58:53;2.95;;;1.80;;
30020;SDS011;16861;52.294;7.760;2022-10-16T09:01:49;5.88;;;1.90;;
30020;SDS011;16861;52.294;7.760;2022-10-16T09:07:27;5.72;;;1.77;;
30020;SDS011;16861;52.294;7.760;2022-10-16T09:18:45;4.82;;;1.23;;
30020;SDS011;16861;52.294;7.760;2022-10-16T09:21:21;3.22;;;1.48;;
30020;SDS011;16861;52.294;7.760;2022-10-16T09:23:51;4.35;;;1.70;;
30020;SDS011;16861;52.294;7.760;2022-10-16T09:26:23;3.83;;;1.45;;
30020;SDS011;16861;52.294;7.760;2022-10-16T09:28:54;3.38;;;1.67;;
30020;SDS011;16861;52.294;7.760;2022-10-16T09:31:22;5.38;;;1.77;;
30020;SDS011;16861;52.294;7.760;2022-10-16T09:33:53;5.18;;;1.42;;
30020;SDS011;16861;52.294;7.760;2022-10-16T09:36:25;3.95;;;1.30;;
30020;SDS011;16861;52.294;7.760;2022-10-16T09:39:04;6.60;;;1.58;;
30020;SDS011;16861;52.294;7.760;2022-10-16T09:41:33;4.72;;;1.08;;
30020;SDS011;16861;52.294;7.760;2022-10-16T09:44:02;4.55;;;1.10;;
30020;SDS011;16861;52.294;7.760;2022-10-16T09:46:33;5.15;;;1.30;;
30020;SDS011;16861;52.294;7.760;2022-10-16T09:49:16;4.43;;;1.10;;
30020;SDS011;16861;52.294;7.760;2022-10-16T09:51:47;2.53;;;1.08;;
30020;SDS011;16861;52.294;7.760;2022-10-16T09:54:15;4.80;;;1.17;;
30020;SDS011;16861;52.294;7.760;2022-10-16T09:56:47;2.42;;;1.20;;
30020;SDS011;16861;52.294;7.760;2022-10-16T09:59:21;2.95;;;1.10;;
30020;SDS011;16861;52.294;7.760;2022-10-16T10:01:53;5.22;;;1.40;;
30020;SDS011;16861;52.294;7.760;2022-10-16T10:04:24;5.03;;;0.90;;
30020;SDS011;16861;52.294;7.760;2022-10-16T10:06:55;3.38;;;1.20;;
30020;SDS011;16861;52.294;7.760;2022-10-16T10:09:31;2.13;;;1.25;;
30020;SDS011;16861;52.294;7.760;2022-10-16T10:12:03;2.63;;;1.08;;
30020;SDS011;16861;52.294;7.760;2022-10-16T10:14:35;3.17;;;1.17;;
30020;SDS011;16861;52.294;7.760;2022-10-16T10:19:38;5.55;;;1.33;;
30020;SDS011;16861;52.294;7.760;2022-10-16T10:22:19;2.63;;;0.85;;
30020;SDS011;16861;52.294;7.760;2022-10-16T10:25:00;3.83;;;1.17;;
30020;SDS011;16861;52.294;7.760;2022-10-16T10:39:31;1.85;;;0.90;;
30020;SDS011;16861;52.294;7.760;2022-10-16T10:50:36;3.42;;;1.05;;
30020;SDS011;16861;52.294;7.760;2022-10-16T10:53:11;3.33;;;1.10;;
30020;SDS011;16861;52.294;7.760;2022-10-16T10:55:47;3.45;;;1.10;;
30020;SDS011;16861;52.294;7.760;2022-10-16T11:01:22;2.47;;;1.00;;
30020;SDS011;16861;52.294;7.760;2022-10-16T11:06:55;5.85;;;1.25;;
30020;SDS011;16861;52.294;7.760;2022-10-16T11:15:00;3.80;;;1.70;;
30020;SDS011;16861;52.294;7.760;2022-10-16T11:17:29;6.05;;;2.00;;
30020;SDS011;16861;52.294;7.760;2022-10-16T11:20:04;5.47;;;1.80;;
30020;SDS011;16861;52.294;7.760;2022-10-16T11:28:13;4.72;;;1.80;;
30020;SDS011;16861;52.294;7.760;2022-10-16T11:33:44;4.35;;;2.08;;
30020;SDS011;16861;52.294;7.760;2022-10-16T11:36:33;5.78;;;2.20;;
30020;SDS011;16861;52.294;7.760;2022-10-16T11:41:50;5.43;;;2.53;;
30020;SDS011;16861;52.294;7.760;2022-10-16T11:47:23;4.50;;;2.42;;
30020;SDS011;16861;52.294;7.760;2022-10-16T11:52:44;7.22;;;3.42;;
30020;SDS011;16861;52.294;7.760;2022-10-16T11:55:20;7.03;;;3.10;;
30020;SDS011;16861;52.294;7.760;2022-10-16T11:57:54;5.07;;;2.20;;
30020;SDS011;16861;52.294;7.760;2022-10-16T12:05:55;8.23;;;2.88;;
30020;SDS011;16861;52.294;7.760;2022-10-16T12:08:27;6.82;;;2.47;;
30020;SDS011;16861;52.294;7.760;2022-10-16T12:11:05;7.18;;;2.67;;
30020;SDS011;16861;52.294;7.760;2022-10-16T12:13:46;6.50;;;1.90;;
30020;SDS011;16861;52.294;7.760;2022-10-16T12:18:42;4.13;;;1.95;;
30020;SDS011;16861;52.294;7.760;2022-10-16T12:21:11;6.90;;;2.67;;
30020;SDS011;16861;52.294;7.760;2022-10-16T12:23:52;5.00;;;2.28;;
30020;SDS011;16861;52.294;7.760;2022-10-16T12:26:25;3.38;;;1.83;;
30020;SDS011;16861;52.294;7.760;2022-10-16T12:31:21;2.42;;;1.40;;
30020;SDS011;16861;52.294;7.760;2022-10-16T12:33:55;3.05;;;2.00;;
30020;SDS011;16861;52.294;7.760;2022-10-16T12:36:32;4.85;;;1.70;;
30020;SDS011;16861;52.294;7.760;2022-10-16T12:39:00;3.88;;;1.80;;
30020;SDS011;16861;52.294;7.760;2022-10-16T12:43:54;5.78;;;1.50;;
30020;SDS011;16861;52.294;7.760;2022-10-16T12:46:23;2.88;;;1.48;;
30020;SDS011;16861;52.294;7.760;2022-10-16T12:49:05;4.65;;;1.60;;
30020;SDS011;16861;52.294;7.760;2022-10-16T12:51:38;6.57;;;1.50;;
30020;SDS011;16861;52.294;7.760;2022-10-16T12:56:39;3.40;;;1.50;;
30020;SDS011;16861;52.294;7.760;2022-10-16T12:59:20;3.13;;;1.55;;
30020;SDS011;16861;52.294;7.760;2022-10-16T13:04:29;4.68;;;1.90;;
30020;SDS011;16861;52.294;7.760;2022-10-16T13:07:15;7.75;;;1.60;;
30020;SDS011;16861;52.294;7.760;2022-10-16T13:09:58;4.72;;;1.60;;
30020;SDS011;16861;52.294;7.760;2022-10-16T13:26:31;4.75;;;1.23;;
30020;SDS011;16861;52.294;7.760;2022-10-16T13:29:07;8.00;;;1.30;;
30020;SDS011;16861;52.294;7.760;2022-10-16T13:31:36;6.93;;;1.85;;
30020;SDS011;16861;52.294;7.760;2022-10-16T13:34:05;3.25;;;1.20;;
30020;SDS011;16861;52.294;7.760;2022-10-16T13:36:47;3.53;;;1.25;;
30020;SDS011;16861;52.294;7.760;2022-10-16T13:42:06;4.43;;;1.55;;
30020;SDS011;16861;52.294;7.760;2022-10-16T13:44:42;5.88;;;1.42;;
30020;SDS011;16861;52.294;7.760;2022-10-16T13:47:22;5.53;;;1.38;;
30020;SDS011;16861;52.294;7.760;2022-10-16T13:50:04;5.55;;;1.50;;
30020;SDS011;16861;52.294;7.760;2022-10-16T13:52:35;8.25;;;1.50;;
30020;SDS011;16861;52.294;7.760;2022-10-16T13:55:04;6.90;;;1.90;;
30020;SDS011;16861;52.294;7.760;2022-10-16T13:57:41;4.18;;;1.38;;
30020;SDS011;16861;52.294;7.760;2022-10-16T14:00:21;1.83;;;1.13;;
30020;SDS011;16861;52.294;7.760;2022-10-16T14:02:51;3.95;;;1.30;;
30020;SDS011;16861;52.294;7.760;2022-10-16T14:05:25;3.38;;;1.30;;
30020;SDS011;16861;52.294;7.760;2022-10-16T14:07:51;4.15;;;1.15;;
30020;SDS011;16861;52.294;7.760;2022-10-16T14:10:25;3.05;;;1.13;;
30020;SDS011;16861;52.294;7.760;2022-10-16T14:13:06;3.42;;;1.30;;
30020;SDS011;16861;52.294;7.760;2022-10-16T14:15:35;4.28;;;1.45;;
30020;SDS011;16861;52.294;7.760;2022-10-16T14:18:02;4.10;;;1.23;;
30020;SDS011;16861;52.294;7.760;2022-10-16T14:20:31;5.05;;;1.50;;
30020;SDS011;16861;52.294;7.760;2022-10-16T14:25:44;4.55;;;1.45;;
30020;SDS011;16861;52.294;7.760;2022-10-16T14:28:21;5.55;;;1.35;;
30020;SDS011;16861;52.294;7.760;2022-10-16T14:30:50;2.80;;;1.20;;
30020;SDS011;16861;52.294;7.760;2022-10-16T14:33:21;4.97;;;1.10;;
30020;SDS011;16861;52.294;7.760;2022-10-16T14:36:04;4.68;;;1.35;;
30020;SDS011;16861;52.294;7.760;2022-10-16T14:38:37;4.38;;;1.15;;
30020;SDS011;16861;52.294;7.760;2022-10-16T14:41:05;3.47;;;1.23;;
30020;SDS011;16861;52.294;7.760;2022-10-16T14:43:36;5.05;;;1.63;;
30020;SDS011;16861;52.294;7.760;2022-10-16T14:46:06;4.90;;;1.27;;
30020;SDS011;16861;52.294;7.760;2022-10-16T14:48:40;4.30;;;1.25;;
30020;SDS011;16861;52.294;7.760;2022-10-16T14:51:12;5.35;;;1.70;;
30020;SDS011;16861;52.294;7.760;2022-10-16T14:53:41;3.80;;;1.35;;
30020;SDS011;16861;52.294;7.760;2022-10-16T14:56:08;2.50;;;0.82;;
30020;SDS011;16861;52.294;7.760;2022-10-16T14:58:40;5.00;;;1.20;;
30020;SDS011;16861;52.294;7.760;2022-10-16T15:01:08;3.55;;;1.15;;
30020;SDS011;16861;52.294;7.760;2022-10-16T15:03:37;3.47;;;1.10;;
30020;SDS011;16861;52.294;7.760;2022-10-16T15:06:08;2.75;;;1.20;;
30020;SDS011;16861;52.294;7.760;2022-10-16T15:08:36;6.38;;;1.73;;
30020;SDS011;16861;52.294;7.760;2022-10-16T15:11:03;1.45;;;0.90;;
30020;SDS011;16861;52.294;7.760;2022-10-16T15:13:30;3.15;;;1.00;;
30020;SDS011;16861;52.294;7.760;2022-10-16T15:15:57;4.90;;;1.08;;
30020;SDS011;16861;52.294;7.760;2022-10-16T15:18:24;3.38;;;1.30;;
30020;SDS011;16861;52.294;7.760;2022-10-16T15:20:51;5.45;;;1.50;;
30020;SDS011;16861;52.294;7.760;2022-10-16T15:23:19;6.03;;;1.10;;
30020;SDS011;16861;52.294;7.760;2022-10-16T15:28:19;3.92;;;1.30;;
30020;SDS011;16861;52.294;7.760;2022-10-16T15:30:46;6.53;;;1.70;;
30020;SDS011;16861;52.294;7.760;2022-10-16T15:33:23;5.03;;;1.20;;
30020;SDS011;16861;52.294;7.760;2022-10-16T15:35:53;4.60;;;1.35;;
30020;SDS011;16861;52.294;7.760;2022-10-16T15:38:21;3.35;;;1.40;;
30020;SDS011;16861;52.294;7.760;2022-10-16T15:40:49;4.05;;;1.42;;
30020;SDS011;16861;52.294;7.760;2022-10-16T15:43:16;4.43;;;1.60;;
30020;SDS011;16861;52.294;7.760;2022-10-16T15:45:43;3.15;;;1.38;;
30020;SDS011;16861;52.294;7.760;2022-10-16T15:48:12;4.50;;;1.48;;
30020;SDS011;16861;52.294;7.760;2022-10-16T15:50:40;4.88;;;1.08;;
30020;SDS011;16861;52.294;7.760;2022-10-16T15:53:07;3.08;;;1.17;;
30020;SDS011;16861;52.294;7.760;2022-10-16T15:55:33;4.50;;;1.33;;
30020;SDS011;16861;52.294;7.760;2022-10-16T15:58:00;3.92;;;1.30;;
30020;SDS011;16861;52.294;7.760;2022-10-16T16:00:27;5.03;;;1.58;;
30020;SDS011;16861;52.294;7.760;2022-10-16T16:02:54;4.63;;;1.60;;
30020;SDS011;16861;52.294;7.760;2022-10-16T16:05:21;3.60;;;1.13;;
30020;SDS011;16861;52.294;7.760;2022-10-16T16:07:48;4.05;;;1.80;;
30020;SDS011;16861;52.294;7.760;2022-10-16T16:10:16;3.13;;;1.15;;
30020;SDS011;16861;52.294;7.760;2022-10-16T16:12:43;5.95;;;1.30;;
30020;SDS011;16861;52.294;7.760;2022-10-16T16:15:15;5.38;;;1.40;;
30020;SDS011;16861;52.294;7.760;2022-10-16T16:17:42;4.72;;;1.25;;
30020;SDS011;16861;52.294;7.760;2022-10-16T16:20:10;4.45;;;1.48;;
30020;SDS011;16861;52.294;7.760;2022-10-16T16:22:37;2.92;;;1.20;;
30020;SDS011;16861;52.294;7.760;2022-10-16T16:25:04;4.43;;;1.35;;
30020;SDS011;16861;52.294;7.760;2022-10-16T16:27:31;10.77;;;1.83;;
30020;SDS011;16861;52.294;7.760;2022-10-16T16:30:00;4.80;;;1.40;;
30020;SDS011;16861;52.294;7.760;2022-10-16T16:32:29;3.58;;;1.15;;
30020;SDS011;16861;52.294;7.760;2022-10-16T16:34:56;4.03;;;1.67;;
30020;SDS011;16861;52.294;7.760;2022-10-16T16:37:23;3.25;;;1.58;;
30020;SDS011;16861;52.294;7.760;2022-10-16T16:39:50;6.70;;;1.58;;
30020;SDS011;16861;52.294;7.760;2022-10-16T16:42:17;7.25;;;1.60;;
30020;SDS011;16861;52.294;7.760;2022-10-16T16:44:43;5.72;;;1.27;;
30020;SDS011;16861;52.294;7.760;2022-10-16T16:47:10;8.32;;;1.88;;
30020;SDS011;16861;52.294;7.760;2022-10-16T16:49:37;5.93;;;2.00;;
30020;SDS011;16861;52.294;7.760;2022-10-16T16:52:03;5.70;;;1.23;;
30020;SDS011;16861;52.294;7.760;2022-10-16T16:54:30;5.22;;;1.40;;
30020;SDS011;16861;52.294;7.760;2022-10-16T16:56:56;4.10;;;1.02;;
30020;SDS011;16861;52.294;7.760;2022-10-16T16:59:23;6.20;;;1.40;;
30020;SDS011;16861;52.294;7.760;2022-10-16T17:01:50;9.27;;;1.58;;
30020;SDS011;16861;52.294;7.760;2022-10-16T17:04:22;4.03;;;1.30;;
30020;SDS011;16861;52.294;7.760;2022-10-16T17:06:48;8.00;;;1.45;;
30020;SDS011;16861;52.294;7.760;2022-10-16T17:09:15;3.28;;;1.20;;